Time,TemperatureF,DewpointF,PressureIn,WindDirection,WindDirectionDegrees,WindSpeedMPH,WindSpeedGustMPH,Humidity,HourlyPrecipIn,Conditions,Clouds,dailyrainin,SoftwareType,DateUTC
2013-02-23 00:07:00,37.2,29.7,30.05,North,-999,-999.0,-999.0,74,-99.99,,,-99.99,Acu-Link.com,2013-02-23 05:07:00,
2013-02-23 00:22:00,37.4,29.9,30.05,North,-999,-999.0,-999.0,74,-99.99,,,-99.99,Acu-Link.com,2013-02-23 05:22:00,
2013-02-23 00:37:00,37.4,29.9,30.06,North,-999,-999.0,-999.0,74,-99.99,,,-99.99,Acu-Link.com,2013-02-23 05:37:00,
2013-02-23 00:52:00,37.6,30.4,30.06,North,-999,-999.0,-999.0,75,-99.99,,,-99.99,Acu-Link.com,2013-02-23 05:52:00,
2013-02-23 01:07:00,37.4,30.2,30.05,North,-999,-999.0,-999.0,75,-99.99,,,-99.99,Acu-Link.com,2013-02-23 06:07:00,
2013-02-23 01:22:00,37.4,30.2,30.05,North,-999,-999.0,-999.0,75,-99.99,,,-99.99,Acu-Link.com,2013-02-23 06:22:00,
2013-02-23 01:38:00,37.2,30.4,30.05,North,-999,-999.0,-999.0,76,-99.99,,,-99.99,Acu-Link.com,2013-02-23 06:38:00,
2013-02-23 01:53:00,37.0,30.8,30.03,North,-999,-999.0,-999.0,78,-99.99,,,-99.99,Acu-Link.com,2013-02-23 06:53:00,
2013-02-23 02:08:00,36.9,30.7,30.03,North,-999,-999.0,-999.0,78,-99.99,,,-99.99,Acu-Link.com,2013-02-23 07:08:00,
2013-02-23 02:23:00,36.9,31.3,30.02,North,-999,-999.0,-999.0,80,-99.99,,,-99.99,Acu-Link.com,2013-02-23 07:23:00,
2013-02-23 02:38:00,36.9,31.6,30.01,North,-999,-999.0,-999.0,81,-99.99,,,-99.99,Acu-Link.com,2013-02-23 07:38:00,
2013-02-23 02:53:00,36.7,31.7,29.99,North,-999,-999.0,-999.0,82,-99.99,,,-99.99,Acu-Link.com,2013-02-23 07:53:00,
2013-02-23 03:08:00,36.5,31.8,29.99,North,-999,-999.0,-999.0,83,-99.99,,,-99.99,Acu-Link.com,2013-02-23 08:08:00,
2013-02-23 03:23:00,36.5,32.1,29.99,North,-999,-999.0,-999.0,84,-99.99,,,-99.99,Acu-Link.com,2013-02-23 08:23:00,
2013-02-23 03:38:00,36.5,32.1,29.98,North,-999,-999.0,-999.0,84,-99.99,,,-99.99,Acu-Link.com,2013-02-23 08:38:00,
2013-02-23 03:53:00,36.7,32.3,29.98,North,-999,-999.0,-999.0,84,-99.99,,,-99.99,Acu-Link.com,2013-02-23 08:53:00,
2013-02-23 04:20:00,36.7,32.3,29.98,North,-999,-999.0,-999.0,84,-99.99,,,-99.99,Acu-Link.com,2013-02-23 09:20:00,
2013-02-23 04:35:00,36.9,32.8,29.97,North,-999,-999.0,-999.0,85,-99.99,,,-99.99,Acu-Link.com,2013-02-23 09:35:00,
2013-02-23 04:50:00,37.0,33.0,29.97,North,-999,-999.0,-999.0,85,-99.99,,,-99.99,Acu-Link.com,2013-02-23 09:50:00,
2013-02-23 05:05:00,37.2,33.1,29.96,North,-999,-999.0,-999.0,85,-99.99,,,-99.99,Acu-Link.com,2013-02-23 10:05:00,
2013-02-23 05:21:00,37.4,33.3,29.95,North,-999,-999.0,-999.0,85,-99.99,,,-99.99,Acu-Link.com,2013-02-23 10:21:00,
2013-02-23 05:36:00,37.4,33.3,29.96,North,-999,-999.0,-999.0,85,-99.99,,,-99.99,Acu-Link.com,2013-02-23 10:36:00,
2013-02-23 05:51:00,37.4,33.3,29.95,North,-999,-999.0,-999.0,85,-99.99,,,-99.99,Acu-Link.com,2013-02-23 10:51:00,
2013-02-23 06:06:00,37.4,33.6,29.95,North,-999,-999.0,-999.0,86,-99.99,,,-99.99,Acu-Link.com,2013-02-23 11:06:00,
2013-02-23 06:21:00,37.6,33.8,29.95,North,-999,-999.0,-999.0,86,-99.99,,,-99.99,Acu-Link.com,2013-02-23 11:21:00,
2013-02-23 06:36:00,37.8,34.2,29.95,North,-999,-999.0,-999.0,87,-99.99,,,-99.99,Acu-Link.com,2013-02-23 11:36:00,
2013-02-23 06:51:00,37.9,34.4,29.95,North,-999,-999.0,-999.0,87,-99.99,,,-99.99,Acu-Link.com,2013-02-23 11:51:00,
2013-02-23 07:06:00,38.1,34.6,29.94,North,-999,-999.0,-999.0,87,-99.99,,,-99.99,Acu-Link.com,2013-02-23 12:06:00,
2013-02-23 07:21:00,38.3,34.8,29.94,North,-999,-999.0,-999.0,87,-99.99,,,-99.99,Acu-Link.com,2013-02-23 12:21:00,
2013-02-23 07:36:00,38.7,35.1,29.93,North,-999,-999.0,-999.0,87,-99.99,,,-99.99,Acu-Link.com,2013-02-23 12:36:00,
2013-02-23 07:51:00,39.0,35.5,29.94,North,-999,-999.0,-999.0,87,-99.99,,,-99.99,Acu-Link.com,2013-02-23 12:51:00,
2013-02-23 08:06:00,39.2,35.7,29.93,North,-999,-999.0,-999.0,87,-99.99,,,-99.99,Acu-Link.com,2013-02-23 13:06:00,
2013-02-23 08:21:00,39.6,36.3,29.91,North,-999,-999.0,-999.0,88,-99.99,,,-99.99,Acu-Link.com,2013-02-23 13:21:00,
2013-02-23 08:36:00,39.7,36.5,29.92,North,-999,-999.0,-999.0,88,-99.99,,,-99.99,Acu-Link.com,2013-02-23 13:36:00,
2013-02-23 08:51:00,40.1,36.8,29.91,North,-999,-999.0,-999.0,88,-99.99,,,-99.99,Acu-Link.com,2013-02-23 13:51:00,
2013-02-23 09:06:00,40.3,37.0,29.91,North,-999,-999.0,-999.0,88,-99.99,,,-99.99,Acu-Link.com,2013-02-23 14:06:00,
2013-02-23 09:21:00,40.5,37.2,29.90,North,-999,-999.0,-999.0,88,-99.99,,,-99.99,Acu-Link.com,2013-02-23 14:21:00,
2013-02-23 09:36:00,40.6,37.7,29.88,North,-999,-999.0,-999.0,89,-99.99,,,-99.99,Acu-Link.com,2013-02-23 14:36:00,
2013-02-23 09:51:00,40.8,37.8,29.88,North,-999,-999.0,-999.0,89,-99.99,,,-99.99,Acu-Link.com,2013-02-23 14:51:00,
2013-02-23 10:06:00,41.2,38.2,29.87,North,-999,-999.0,-999.0,89,-99.99,,,-99.99,Acu-Link.com,2013-02-23 15:06:00,
2013-02-23 10:21:00,41.5,38.8,29.87,North,-999,-999.0,-999.0,90,-99.99,,,-99.99,Acu-Link.com,2013-02-23 15:21:00,
2013-02-23 10:36:00,41.7,39.0,29.87,North,-999,-999.0,-999.0,90,-99.99,,,-99.99,Acu-Link.com,2013-02-23 15:36:00,
2013-02-23 10:51:00,42.1,39.6,29.86,North,-999,-999.0,-999.0,91,-99.99,,,-99.99,Acu-Link.com,2013-02-23 15:51:00,
2013-02-23 11:06:00,42.4,40.3,29.85,North,-999,-999.0,-999.0,92,-99.99,,,-99.99,Acu-Link.com,2013-02-23 16:06:00,
2013-02-23 11:21:00,42.6,40.7,29.85,North,-999,-999.0,-999.0,93,-99.99,,,-99.99,Acu-Link.com,2013-02-23 16:21:00,
2013-02-23 11:36:00,42.8,40.6,29.84,North,-999,-999.0,-999.0,92,-99.99,,,-99.99,Acu-Link.com,2013-02-23 16:36:00,
2013-02-23 11:51:00,43.2,41.0,29.83,North,-999,-999.0,-999.0,92,-99.99,,,-99.99,Acu-Link.com,2013-02-23 16:51:00,
2013-02-23 12:06:00,43.5,41.6,29.81,North,-999,-999.0,-999.0,93,-99.99,,,-99.99,Acu-Link.com,2013-02-23 17:06:00,
2013-02-23 12:21:00,43.9,42.3,29.80,North,-999,-999.0,-999.0,94,-99.99,,,-99.99,Acu-Link.com,2013-02-23 17:21:00,
2013-02-23 12:36:00,44.1,42.4,29.81,North,-999,-999.0,-999.0,94,-99.99,,,-99.99,Acu-Link.com,2013-02-23 17:36:00,
2013-02-23 12:51:00,44.2,42.9,29.79,North,-999,-999.0,-999.0,95,-99.99,,,-99.99,Acu-Link.com,2013-02-23 17:51:00,
2013-02-23 13:06:00,44.6,43.0,29.78,North,-999,-999.0,-999.0,94,-99.99,,,-99.99,Acu-Link.com,2013-02-23 18:06:00,
2013-02-23 13:21:00,44.6,43.3,29.77,North,-999,-999.0,-999.0,95,-99.99,,,-99.99,Acu-Link.com,2013-02-23 18:21:00,
2013-02-23 13:36:00,44.6,43.3,29.76,North,-999,-999.0,-999.0,95,-99.99,,,-99.99,Acu-Link.com,2013-02-23 18:36:00,
2013-02-23 13:51:00,44.6,43.3,29.77,North,-999,-999.0,-999.0,95,-99.99,,,-99.99,Acu-Link.com,2013-02-23 18:51:00,
2013-02-23 14:06:00,44.6,43.3,29.76,North,-999,-999.0,-999.0,95,-99.99,,,-99.99,Acu-Link.com,2013-02-23 19:06:00,
2013-02-23 14:21:00,44.6,43.3,29.76,North,-999,-999.0,-999.0,95,-99.99,,,-99.99,Acu-Link.com,2013-02-23 19:21:00,
2013-02-23 14:36:00,44.6,43.3,29.75,North,-999,-999.0,-999.0,95,-99.99,,,-99.99,Acu-Link.com,2013-02-23 19:36:00,
2013-02-23 14:51:00,44.6,43.0,29.75,North,-999,-999.0,-999.0,94,-99.99,,,-99.99,Acu-Link.com,2013-02-23 19:51:00,
2013-02-23 15:06:00,44.2,42.9,29.74,North,-999,-999.0,-999.0,95,-99.99,,,-99.99,Acu-Link.com,2013-02-23 20:06:00,
2013-02-23 15:21:00,44.1,42.7,29.74,North,-999,-999.0,-999.0,95,-99.99,,,-99.99,Acu-Link.com,2013-02-23 20:21:00,
2013-02-23 15:36:00,43.7,42.4,29.75,North,-999,-999.0,-999.0,95,-99.99,,,-99.99,Acu-Link.com,2013-02-23 20:36:00,
2013-02-23 15:51:00,43.2,41.8,29.74,North,-999,-999.0,-999.0,95,-99.99,,,-99.99,Acu-Link.com,2013-02-23 20:51:00,
2013-02-23 16:06:00,42.8,41.5,29.74,North,-999,-999.0,-999.0,95,-99.99,,,-99.99,Acu-Link.com,2013-02-23 21:06:00,
2013-02-23 16:21:00,42.4,41.1,29.73,North,-999,-999.0,-999.0,95,-99.99,,,-99.99,Acu-Link.com,2013-02-23 21:21:00,
2013-02-23 16:36:00,42.3,40.9,29.72,North,-999,-999.0,-999.0,95,-99.99,,,-99.99,Acu-Link.com,2013-02-23 21:36:00,
2013-02-23 16:51:00,41.4,40.0,29.72,North,-999,-999.0,-999.0,95,-99.99,,,-99.99,Acu-Link.com,2013-02-23 21:51:00,
2013-02-23 17:06:00,40.1,39.1,29.72,North,-999,-999.0,-999.0,96,-99.99,,,-99.99,Acu-Link.com,2013-02-23 22:06:00,
2013-02-23 17:21:00,39.2,38.4,29.71,North,-999,-999.0,-999.0,97,-99.99,,,-99.99,Acu-Link.com,2013-02-23 22:21:00,
2013-02-23 17:36:00,38.5,37.7,29.71,North,-999,-999.0,-999.0,97,-99.99,,,-99.99,Acu-Link.com,2013-02-23 22:36:00,
2013-02-23 17:51:00,38.3,37.5,29.70,North,-999,-999.0,-999.0,97,-99.99,,,-99.99,Acu-Link.com,2013-02-23 22:51:00,
2013-02-23 18:06:00,38.3,37.5,29.70,North,-999,-999.0,-999.0,97,-99.99,,,-99.99,Acu-Link.com,2013-02-23 23:06:00,
2013-02-23 18:21:00,38.3,37.5,29.70,North,-999,-999.0,-999.0,97,-99.99,,,-99.99,Acu-Link.com,2013-02-23 23:21:00,
2013-02-23 18:36:00,38.5,37.7,29.70,North,-999,-999.0,-999.0,97,-99.99,,,-99.99,Acu-Link.com,2013-02-23 23:36:00,
2013-02-23 18:51:00,38.3,37.5,29.71,North,-999,-999.0,-999.0,97,-99.99,,,-99.99,Acu-Link.com,2013-02-23 23:51:00,
2013-02-23 19:06:00,38.1,37.3,29.70,North,-999,-999.0,-999.0,97,-99.99,,,-99.99,Acu-Link.com,2013-02-24 00:06:00,
2013-02-23 19:21:00,37.6,36.8,29.69,North,-999,-999.0,-999.0,97,-99.99,,,-99.99,Acu-Link.com,2013-02-24 00:21:00,
2013-02-23 19:36:00,37.4,36.6,29.69,North,-999,-999.0,-999.0,97,-99.99,,,-99.99,Acu-Link.com,2013-02-24 00:36:00,
2013-02-23 19:51:00,37.4,36.4,29.69,North,-999,-999.0,-999.0,96,-99.99,,,-99.99,Acu-Link.com,2013-02-24 00:51:00,
2013-02-23 20:06:00,37.4,36.4,29.68,North,-999,-999.0,-999.0,96,-99.99,,,-99.99,Acu-Link.com,2013-02-24 01:06:00,
2013-02-23 20:21:00,37.4,36.4,29.66,North,-999,-999.0,-999.0,96,-99.99,,,-99.99,Acu-Link.com,2013-02-24 01:21:00,
2013-02-23 20:36:00,37.4,36.4,29.65,North,-999,-999.0,-999.0,96,-99.99,,,-99.99,Acu-Link.com,2013-02-24 01:36:00,
2013-02-23 20:51:00,37.4,36.4,29.65,North,-999,-999.0,-999.0,96,-99.99,,,-99.99,Acu-Link.com,2013-02-24 01:51:00,
2013-02-23 21:07:00,37.2,36.2,29.64,North,-999,-999.0,-999.0,96,-99.99,,,-99.99,Acu-Link.com,2013-02-24 02:07:00,
2013-02-23 21:22:00,37.0,36.3,29.64,North,-999,-999.0,-999.0,97,-99.99,,,-99.99,Acu-Link.com,2013-02-24 02:22:00,
2013-02-23 21:37:00,36.7,35.9,29.63,North,-999,-999.0,-999.0,97,-99.99,,,-99.99,Acu-Link.com,2013-02-24 02:37:00,
2013-02-23 21:52:00,36.5,35.7,29.63,North,-999,-999.0,-999.0,97,-99.99,,,-99.99,Acu-Link.com,2013-02-24 02:52:00,
2013-02-23 22:07:00,36.1,35.6,29.62,North,-999,-999.0,-999.0,98,-99.99,,,-99.99,Acu-Link.com,2013-02-24 03:07:00,
2013-02-23 22:22:00,36.1,35.6,29.61,North,-999,-999.0,-999.0,98,-99.99,,,-99.99,Acu-Link.com,2013-02-24 03:22:00,
2013-02-23 22:37:00,36.1,35.6,29.60,North,-999,-999.0,-999.0,98,-99.99,,,-99.99,Acu-Link.com,2013-02-24 03:37:00,
2013-02-23 22:52:00,36.1,35.6,29.60,North,-999,-999.0,-999.0,98,-99.99,,,-99.99,Acu-Link.com,2013-02-24 03:52:00,
2013-02-23 23:07:00,36.1,35.9,29.59,North,-999,-999.0,-999.0,99,-99.99,,,-99.99,Acu-Link.com,2013-02-24 04:07:00,
2013-02-23 23:22:00,36.3,36.1,29.59,North,-999,-999.0,-999.0,99,-99.99,,,-99.99,Acu-Link.com,2013-02-24 04:22:00,
2013-02-23 23:37:00,36.3,36.1,29.58,North,-999,-999.0,-999.0,99,-99.99,,,-99.99,Acu-Link.com,2013-02-24 04:37:00,
2013-02-23 23:52:00,36.5,36.2,29.57,North,-999,-999.0,-999.0,99,-99.99,,,-99.99,Acu-Link.com,2013-02-24 04:52:00,